AVA9401 SKBO-SKPS
Flight info
| Callsign | AVA9401 |
|---|---|
| Flight time | 0h 47m |
| Altitude | 36000 |
| Route | VAPOM4R OREGA DCT PPN DCT MER |
| Aircraft | A321/M-SDE3FGHIRWY/LB1 |
Departure
| Time | 2026-04-19 03:00 |
|---|---|
| Airport | El Dorado International Airport (SKBO) |
Arrival
| Time | 2026-04-19 03:47 |
|---|---|
| Airport | Antonio Nariño Airport (SKPS) |
| Time | Latitude | Longitude | Altitude | Speed | Heading |
|---|---|---|---|---|---|
| 2026-04-19 01:59 | 4.69774 | -74.14527 | 8366 ft | 0 kts | 38° |
| 2026-04-19 02:49 | 4.69767 | -74.14532 | 8366 ft | 3 kts | 38° |
| 2026-04-19 02:49 | 4.69754 | -74.14542 | 8366 ft | 3 kts | 32° |
| 2026-04-19 02:49 | 4.69738 | -74.14549 | 8367 ft | 3 kts | 352° |
| 2026-04-19 02:50 | 4.69723 | -74.14543 | 8366 ft | 3 kts | 313° |
| 2026-04-19 02:50 | 4.69714 | -74.14533 | 8366 ft | 0 kts | 308° |
| 2026-04-19 02:53 | 4.69720 | -74.14541 | 8366 ft | 3 kts | 308° |
| 2026-04-19 02:53 | 4.69743 | -74.14570 | 8366 ft | 7 kts | 308° |
| 2026-04-19 02:53 | 4.69784 | -74.14623 | 8366 ft | 12 kts | 307° |
| 2026-04-19 02:53 | 4.69837 | -74.14696 | 8366 ft | 15 kts | 306° |
| 2026-04-19 02:54 | 4.69799 | -74.14773 | 8366 ft | 16 kts | 217° |
| 2026-04-19 02:54 | 4.69719 | -74.14791 | 8365 ft | 14 kts | 149° |
| 2026-04-19 02:54 | 4.69650 | -74.14707 | 8366 ft | 18 kts | 127° |
| 2026-04-19 02:54 | 4.69567 | -74.14596 | 8365 ft | 22 kts | 126° |
| 2026-04-19 02:55 | 4.69467 | -74.14465 | 8366 ft | 25 kts | 127° |
| 2026-04-19 02:55 | 4.69355 | -74.14317 | 8366 ft | 28 kts | 127° |
| 2026-04-19 02:55 | 4.69243 | -74.14167 | 8366 ft | 23 kts | 127° |
| 2026-04-19 02:55 | 4.69151 | -74.14074 | 8366 ft | 14 kts | 178° |
| 2026-04-19 02:56 | 4.69083 | -74.14113 | 8366 ft | 0 kts | 214° |
| 2026-04-19 02:56 | 4.69077 | -74.14118 | 8366 ft | 0 kts | 214° |
| 2026-04-19 02:56 | 4.69076 | -74.14118 | 8366 ft | 1 kts | 214° |
| 2026-04-19 02:57 | 4.69053 | -74.14134 | 8366 ft | 7 kts | 215° |
| 2026-04-19 02:57 | 4.69014 | -74.14186 | 8366 ft | 11 kts | 255° |
| 2026-04-19 02:57 | 4.69034 | -74.14251 | 8366 ft | 1 kts | 304° |
| 2026-04-19 02:57 | 4.69037 | -74.14255 | 8366 ft | 0 kts | 304° |
| 2026-04-19 02:59 | 4.69076 | -74.14312 | 8366 ft | 31 kts | 304° |
| 2026-04-19 02:59 | 4.69355 | -74.14681 | 8362 ft | 99 kts | 307° |
| 2026-04-19 02:59 | 4.69892 | -74.15389 | 8367 ft | 154 kts | 307° |
| 2026-04-19 02:59 | 4.70630 | -74.16355 | 8493 ft | 186 kts | 308° |
| 2026-04-19 03:00 | 4.71431 | -74.17380 | 9134 ft | 187 kts | 307° |
| 2026-04-19 03:00 | 4.72220 | -74.18420 | 9804 ft | 189 kts | 307° |
| 2026-04-19 03:00 | 4.73012 | -74.19545 | 10111 ft | 206 kts | 297° |
| 2026-04-19 03:00 | 4.73456 | -74.20969 | 10248 ft | 222 kts | 284° |
| 2026-04-19 03:01 | 4.73867 | -74.22513 | 10382 ft | 236 kts | 285° |
| 2026-04-19 03:01 | 4.74309 | -74.24157 | 10494 ft | 252 kts | 285° |
| 2026-04-19 03:01 | 4.74699 | -74.25934 | 10581 ft | 273 kts | 272° |
| 2026-04-19 03:01 | 4.74470 | -74.27895 | 10739 ft | 295 kts | 259° |
| 2026-04-19 03:02 | 4.74054 | -74.29995 | 10890 ft | 318 kts | 258° |
| 2026-04-19 03:02 | 4.73592 | -74.32245 | 11021 ft | 340 kts | 258° |
| 2026-04-19 03:02 | 4.73097 | -74.34633 | 11185 ft | 359 kts | 258° |
| 2026-04-19 03:02 | 4.72585 | -74.37111 | 11649 ft | 366 kts | 258° |
| 2026-04-19 03:03 | 4.72071 | -74.39627 | 12316 ft | 369 kts | 258° |
| 2026-04-19 03:03 | 4.71540 | -74.42154 | 13010 ft | 372 kts | 255° |
| 2026-04-19 03:03 | 4.70437 | -74.44496 | 13690 ft | 375 kts | 234° |
| 2026-04-19 03:03 | 4.68682 | -74.46442 | 14387 ft | 378 kts | 222° |
| 2026-04-19 03:04 | 4.66623 | -74.48098 | 15084 ft | 381 kts | 216° |
| 2026-04-19 03:04 | 4.64425 | -74.49595 | 15789 ft | 384 kts | 213° |
| 2026-04-19 03:04 | 4.62176 | -74.51060 | 16442 ft | 387 kts | 213° |
| 2026-04-19 03:04 | 4.60686 | -74.52049 | 16871 ft | 389 kts | 214° |
| 2026-04-19 03:05 | 4.58449 | -74.53599 | 17497 ft | 393 kts | 216° |
| 2026-04-19 03:05 | 4.56232 | -74.55221 | 18122 ft | 396 kts | 217° |
| 2026-04-19 03:05 | 4.54023 | -74.56900 | 18718 ft | 400 kts | 218° |
| 2026-04-19 03:05 | 4.51815 | -74.58612 | 19310 ft | 403 kts | 218° |
| 2026-04-19 03:06 | 4.49594 | -74.60343 | 19922 ft | 406 kts | 218° |
| 2026-04-19 03:06 | 4.47350 | -74.62085 | 20480 ft | 410 kts | 218° |
| 2026-04-19 03:06 | 4.45081 | -74.63834 | 21032 ft | 413 kts | 218° |
| 2026-04-19 03:06 | 4.42795 | -74.65588 | 21557 ft | 415 kts | 218° |
| 2026-04-19 03:07 | 4.40582 | -74.67465 | 22043 ft | 418 kts | 225° |
| 2026-04-19 03:07 | 4.38741 | -74.69684 | 22514 ft | 421 kts | 236° |
| 2026-04-19 03:07 | 4.37285 | -74.72240 | 22977 ft | 424 kts | 243° |
| 2026-04-19 03:07 | 4.35941 | -74.74880 | 23435 ft | 427 kts | 243° |
| 2026-04-19 03:08 | 4.34573 | -74.77540 | 23891 ft | 430 kts | 243° |
| 2026-04-19 03:08 | 4.33195 | -74.80205 | 24324 ft | 432 kts | 243° |
| 2026-04-19 03:08 | 4.31807 | -74.82893 | 24747 ft | 436 kts | 243° |
| 2026-04-19 03:08 | 4.30408 | -74.85599 | 25157 ft | 439 kts | 243° |
| 2026-04-19 03:09 | 4.28998 | -74.88326 | 25565 ft | 442 kts | 243° |
| 2026-04-19 03:09 | 4.27586 | -74.91064 | 25980 ft | 444 kts | 243° |
| 2026-04-19 03:09 | 4.26167 | -74.93819 | 26373 ft | 446 kts | 243° |
| 2026-04-19 03:09 | 4.24740 | -74.96589 | 26737 ft | 449 kts | 243° |
| 2026-04-19 03:10 | 4.23299 | -74.99382 | 27091 ft | 452 kts | 243° |
| 2026-04-19 03:10 | 4.21848 | -75.02189 | 27451 ft | 454 kts | 243° |
| 2026-04-19 03:10 | 4.20299 | -75.04957 | 27788 ft | 457 kts | 236° |
| 2026-04-19 03:10 | 4.18439 | -75.07497 | 28107 ft | 460 kts | 233° |
| 2026-04-19 03:11 | 4.16516 | -75.10067 | 28455 ft | 462 kts | 233° |
| 2026-04-19 03:11 | 4.14579 | -75.12651 | 28775 ft | 465 kts | 233° |
| 2026-04-19 03:11 | 4.12626 | -75.15254 | 29084 ft | 468 kts | 233° |
| 2026-04-19 03:11 | 4.10668 | -75.17868 | 29506 ft | 468 kts | 233° |
| 2026-04-19 03:12 | 4.08721 | -75.20471 | 29980 ft | 466 kts | 233° |
| 2026-04-19 03:12 | 4.06782 | -75.23061 | 30470 ft | 464 kts | 233° |
| 2026-04-19 03:12 | 4.04846 | -75.25646 | 30897 ft | 464 kts | 233° |
| 2026-04-19 03:12 | 4.02910 | -75.28233 | 31284 ft | 463 kts | 233° |
| 2026-04-19 03:13 | 4.00978 | -75.30812 | 31699 ft | 463 kts | 233° |
| 2026-04-19 03:13 | 3.99046 | -75.33392 | 32059 ft | 463 kts | 233° |
| 2026-04-19 03:13 | 3.97107 | -75.35979 | 32376 ft | 465 kts | 233° |
| 2026-04-19 03:13 | 3.95164 | -75.38574 | 32645 ft | 467 kts | 233° |
| 2026-04-19 03:14 | 3.93214 | -75.41177 | 32934 ft | 468 kts | 233° |
| 2026-04-19 03:14 | 3.91270 | -75.43774 | 32176 ft | 463 kts | 232° |
| 2026-04-19 03:14 | 3.89372 | -75.46310 | 32682 ft | 458 kts | 232° |
| 2026-04-19 03:14 | 3.87414 | -75.48812 | 33100 ft | 456 kts | 227° |
| 2026-04-19 03:15 | 3.85147 | -75.51020 | 33459 ft | 454 kts | 219° |
| 2026-04-19 03:15 | 3.82669 | -75.52975 | 33801 ft | 453 kts | 218° |
| 2026-04-19 03:15 | 3.80183 | -75.54921 | 34153 ft | 453 kts | 218° |
| 2026-04-19 03:15 | 3.77708 | -75.56867 | 34457 ft | 452 kts | 218° |
| 2026-04-19 03:16 | 3.75235 | -75.58820 | 34763 ft | 451 kts | 218° |
| 2026-04-19 03:16 | 3.72771 | -75.60770 | 35077 ft | 451 kts | 218° |
| 2026-04-19 03:16 | 3.70313 | -75.62713 | 35406 ft | 450 kts | 218° |
| 2026-04-19 03:16 | 3.67856 | -75.64650 | 35741 ft | 449 kts | 218° |
| 2026-04-19 03:17 | 3.65434 | -75.66557 | 36027 ft | 449 kts | 218° |
| 2026-04-19 03:17 | 3.60527 | -75.70419 | 36142 ft | 448 kts | 218° |
| 2026-04-19 03:18 | 3.55590 | -75.74298 | 36140 ft | 448 kts | 218° |
| 2026-04-19 03:18 | 3.50720 | -75.78139 | 36144 ft | 449 kts | 218° |
| 2026-04-19 03:19 | 3.45815 | -75.82009 | 36148 ft | 449 kts | 218° |
| 2026-04-19 03:19 | 3.40905 | -75.85883 | 36146 ft | 449 kts | 218° |
| 2026-04-19 03:20 | 3.35991 | -75.89748 | 36145 ft | 449 kts | 218° |
| 2026-04-19 03:20 | 3.31076 | -75.93623 | 36153 ft | 450 kts | 218° |
| 2026-04-19 03:21 | 3.26155 | -75.97501 | 36149 ft | 450 kts | 218° |
| 2026-04-19 03:21 | 3.21224 | -76.01378 | 36142 ft | 450 kts | 218° |
| 2026-04-19 03:22 | 3.16301 | -76.05255 | 36139 ft | 451 kts | 218° |
| 2026-04-19 03:22 | 3.11370 | -76.09135 | 36142 ft | 451 kts | 218° |
| 2026-04-19 03:23 | 3.06434 | -76.13011 | 36139 ft | 451 kts | 218° |
| 2026-04-19 03:23 | 3.01499 | -76.16895 | 36139 ft | 451 kts | 218° |
| 2026-04-19 03:24 | 2.96573 | -76.20780 | 36134 ft | 451 kts | 218° |
| 2026-04-19 03:24 | 2.91672 | -76.24637 | 36137 ft | 450 kts | 218° |
| 2026-04-19 03:25 | 2.86745 | -76.28510 | 36139 ft | 449 kts | 218° |
| 2026-04-19 03:25 | 2.81839 | -76.32368 | 36134 ft | 449 kts | 218° |
| 2026-04-19 03:26 | 2.76933 | -76.36229 | 36131 ft | 448 kts | 218° |
| 2026-04-19 03:26 | 2.72027 | -76.40086 | 36133 ft | 449 kts | 218° |
| 2026-04-19 03:27 | 2.67117 | -76.43946 | 36146 ft | 449 kts | 218° |
| 2026-04-19 03:27 | 2.62203 | -76.47807 | 36033 ft | 448 kts | 218° |
| 2026-04-19 03:27 | 2.59750 | -76.49734 | 35454 ft | 449 kts | 218° |
| 2026-04-19 03:28 | 2.57283 | -76.51673 | 34832 ft | 451 kts | 218° |
| 2026-04-19 03:28 | 2.54806 | -76.53617 | 34222 ft | 453 kts | 218° |
| 2026-04-19 03:28 | 2.52325 | -76.55566 | 33526 ft | 455 kts | 218° |
| 2026-04-19 03:28 | 2.49832 | -76.57523 | 32822 ft | 456 kts | 218° |
| 2026-04-19 03:29 | 2.47335 | -76.59485 | 32122 ft | 457 kts | 218° |
| 2026-04-19 03:29 | 2.44830 | -76.61456 | 31422 ft | 458 kts | 218° |
| 2026-04-19 03:29 | 2.42331 | -76.63447 | 30712 ft | 460 kts | 219° |
| 2026-04-19 03:29 | 2.39842 | -76.65465 | 29952 ft | 461 kts | 219° |
| 2026-04-19 03:30 | 2.37354 | -76.67501 | 29081 ft | 463 kts | 219° |
| 2026-04-19 03:30 | 2.34862 | -76.69545 | 28167 ft | 465 kts | 220° |
| 2026-04-19 03:30 | 2.32365 | -76.71595 | 27465 ft | 463 kts | 220° |
| 2026-04-19 03:30 | 2.29886 | -76.73625 | 26827 ft | 459 kts | 220° |
| 2026-04-19 03:31 | 2.27426 | -76.75633 | 26170 ft | 455 kts | 220° |
| 2026-04-19 03:31 | 2.25014 | -76.77600 | 25549 ft | 451 kts | 220° |
| 2026-04-19 03:31 | 2.22591 | -76.79575 | 24931 ft | 448 kts | 220° |
| 2026-04-19 03:31 | 2.20189 | -76.81530 | 24323 ft | 444 kts | 220° |
| 2026-04-19 03:32 | 2.17797 | -76.83476 | 23722 ft | 441 kts | 220° |
| 2026-04-19 03:32 | 2.15425 | -76.85406 | 23029 ft | 438 kts | 220° |
| 2026-04-19 03:32 | 2.13076 | -76.87317 | 22374 ft | 433 kts | 220° |
| 2026-04-19 03:32 | 2.10751 | -76.89212 | 21710 ft | 429 kts | 220° |
| 2026-04-19 03:33 | 2.08448 | -76.91088 | 21100 ft | 425 kts | 220° |
| 2026-04-19 03:33 | 2.06163 | -76.92946 | 20520 ft | 422 kts | 220° |
| 2026-04-19 03:33 | 2.03892 | -76.94791 | 19959 ft | 418 kts | 220° |
| 2026-04-19 03:33 | 2.01640 | -76.96622 | 19404 ft | 415 kts | 220° |
| 2026-04-19 03:34 | 1.99404 | -76.98443 | 18892 ft | 412 kts | 220° |
| 2026-04-19 03:34 | 1.97188 | -77.00246 | 18401 ft | 409 kts | 220° |
| 2026-04-19 03:34 | 1.94990 | -77.02035 | 17932 ft | 404 kts | 220° |
| 2026-04-19 03:34 | 1.92845 | -77.03778 | 17789 ft | 390 kts | 220° |
| 2026-04-19 03:35 | 1.90783 | -77.05451 | 17663 ft | 375 kts | 220° |
| 2026-04-19 03:35 | 1.88818 | -77.07046 | 17508 ft | 349 kts | 221° |
| 2026-04-19 03:35 | 1.87009 | -77.08515 | 17366 ft | 321 kts | 221° |
| 2026-04-19 03:35 | 1.85346 | -77.09868 | 17012 ft | 305 kts | 221° |
| 2026-04-19 03:36 | 1.83724 | -77.11189 | 16469 ft | 299 kts | 221° |
| 2026-04-19 03:36 | 1.82123 | -77.12495 | 16046 ft | 295 kts | 221° |
| 2026-04-19 03:36 | 1.80539 | -77.13788 | 15585 ft | 293 kts | 221° |
| 2026-04-19 03:36 | 1.78951 | -77.15049 | 15133 ft | 291 kts | 217° |
| 2026-04-19 03:37 | 1.77187 | -77.16047 | 14681 ft | 291 kts | 211° |
| 2026-04-19 03:37 | 1.75407 | -77.16995 | 14246 ft | 289 kts | 211° |
| 2026-04-19 03:37 | 1.73638 | -77.17942 | 13808 ft | 287 kts | 211° |
| 2026-04-19 03:37 | 1.71882 | -77.18883 | 13346 ft | 285 kts | 211° |
| 2026-04-19 03:38 | 1.70140 | -77.19816 | 12880 ft | 283 kts | 211° |
| 2026-04-19 03:38 | 1.68408 | -77.20744 | 12423 ft | 281 kts | 210° |
| 2026-04-19 03:38 | 1.66691 | -77.21664 | 11977 ft | 279 kts | 210° |
| 2026-04-19 03:38 | 1.64983 | -77.22577 | 11554 ft | 277 kts | 210° |
| 2026-04-19 03:39 | 1.63287 | -77.23484 | 11141 ft | 275 kts | 210° |
| 2026-04-19 03:39 | 1.61605 | -77.24384 | 10724 ft | 273 kts | 210° |
| 2026-04-19 03:39 | 1.59935 | -77.25278 | 10311 ft | 271 kts | 210° |
| 2026-04-19 03:39 | 1.58281 | -77.26165 | 10007 ft | 268 kts | 210° |
| 2026-04-19 03:40 | 1.56630 | -77.27049 | 9992 ft | 270 kts | 210° |
| 2026-04-19 03:40 | 1.54971 | -77.27937 | 9983 ft | 269 kts | 210° |
| 2026-04-19 03:40 | 1.53331 | -77.28816 | 9607 ft | 266 kts | 210° |
| 2026-04-19 03:40 | 1.51712 | -77.29669 | 9338 ft | 257 kts | 208° |
| 2026-04-19 03:41 | 1.50155 | -77.30455 | 9217 ft | 245 kts | 208° |
| 2026-04-19 03:41 | 1.48687 | -77.31180 | 9122 ft | 225 kts | 208° |
| 2026-04-19 03:41 | 1.47373 | -77.31828 | 9008 ft | 198 kts | 208° |
| 2026-04-19 03:41 | 1.46217 | -77.32399 | 8894 ft | 171 kts | 207° |
| 2026-04-19 03:42 | 1.45195 | -77.32908 | 8564 ft | 160 kts | 208° |
| 2026-04-19 03:42 | 1.44212 | -77.33400 | 8123 ft | 157 kts | 208° |
| 2026-04-19 03:42 | 1.43249 | -77.33883 | 8025 ft | 156 kts | 208° |
| 2026-04-19 03:42 | 1.42269 | -77.34374 | 8020 ft | 159 kts | 208° |
| 2026-04-19 03:43 | 1.41281 | -77.34869 | 8018 ft | 159 kts | 208° |
| 2026-04-19 03:43 | 1.40304 | -77.35361 | 8015 ft | 159 kts | 208° |
| 2026-04-19 03:43 | 1.39316 | -77.35857 | 8007 ft | 159 kts | 208° |
| 2026-04-19 03:43 | 1.38320 | -77.36335 | 7988 ft | 159 kts | 200° |
| 2026-04-19 03:44 | 1.37234 | -77.36537 | 8012 ft | 161 kts | 182° |
| 2026-04-19 03:44 | 1.36132 | -77.36366 | 8009 ft | 161 kts | 161° |
| 2026-04-19 03:44 | 1.35149 | -77.35838 | 8018 ft | 162 kts | 142° |
| 2026-04-19 03:44 | 1.34385 | -77.35013 | 8016 ft | 163 kts | 123° |
| 2026-04-19 03:45 | 1.33936 | -77.33982 | 8021 ft | 162 kts | 104° |
| 2026-04-19 03:45 | 1.33851 | -77.32863 | 7817 ft | 161 kts | 83° |
| 2026-04-19 03:45 | 1.34189 | -77.31815 | 7533 ft | 158 kts | 61° |
| 2026-04-19 03:45 | 1.34847 | -77.30949 | 7306 ft | 157 kts | 43° |
| 2026-04-19 03:46 | 1.35708 | -77.30282 | 7075 ft | 157 kts | 33° |
| 2026-04-19 03:46 | 1.36713 | -77.29852 | 6572 ft | 160 kts | 11° |
| 2026-04-19 03:46 | 1.37791 | -77.29617 | 6283 ft | 158 kts | 16° |
| 2026-04-19 03:46 | 1.38851 | -77.29314 | 5963 ft | 156 kts | 16° |
| 2026-04-19 03:47 | 1.39757 | -77.29065 | 5899 ft | 88 kts | 14° |
| 2026-04-19 03:47 | 1.40163 | -77.28960 | 5876 ft | 42 kts | 14° |
| 2026-04-19 03:47 | 1.40388 | -77.28901 | 5870 ft | 23 kts | 14° |
| 2026-04-19 03:47 | 1.40545 | -77.28862 | 5862 ft | 22 kts | 13° |
| 2026-04-19 03:48 | 1.40612 | -77.28851 | 5852 ft | 1 kts | 68° |
| 2026-04-19 03:48 | 1.40609 | -77.28848 | 5852 ft | 0 kts | 116° |
| 2026-04-19 03:48 | 1.40600 | -77.28844 | 5852 ft | 2 kts | 165° |
| 2026-04-19 03:48 | 1.40577 | -77.28849 | 5853 ft | 5 kts | 195° |
| 2026-04-19 03:49 | 1.40541 | -77.28859 | 5862 ft | 7 kts | 196° |
| 2026-04-19 03:49 | 1.40478 | -77.28878 | 5866 ft | 14 kts | 196° |
| 2026-04-19 03:49 | 1.40342 | -77.28916 | 5873 ft | 24 kts | 192° |
| 2026-04-19 03:49 | 1.40182 | -77.28955 | 5882 ft | 26 kts | 195° |
| 2026-04-19 03:50 | 1.40012 | -77.29003 | 5883 ft | 28 kts | 195° |
| 2026-04-19 03:50 | 1.39821 | -77.29058 | 5896 ft | 29 kts | 194° |
| 2026-04-19 03:50 | 1.39673 | -77.29046 | 5904 ft | 15 kts | 110° |
| 2026-04-19 03:50 | 1.39627 | -77.29015 | 5907 ft | 8 kts | 206° |
| 2026-04-19 03:51 | 1.39558 | -77.29028 | 5908 ft | 11 kts | 156° |
| 2026-04-19 03:51 | 1.39543 | -77.28996 | 5908 ft | 0 kts | 105° |